createdAt,value
2023-04-14T00:01:59.956Z,1.58
2023-04-14T00:04:26.674Z,1.35
2023-04-14T00:06:53.190Z,1.30
2023-04-14T00:09:19.576Z,1.15
2023-04-14T00:11:45.996Z,1.17
2023-04-14T00:14:12.355Z,1.33
2023-04-14T00:16:39.493Z,1.67
2023-04-14T00:19:05.882Z,1.42
2023-04-14T00:21:32.319Z,1.98
2023-04-14T00:23:58.675Z,1.98
2023-04-14T00:26:25.173Z,1.45
2023-04-14T00:28:51.526Z,1.83
2023-04-14T00:31:17.999Z,1.77
2023-04-14T00:33:44.325Z,2.00
2023-04-14T00:36:10.770Z,2.08
2023-04-14T00:38:37.162Z,1.40
2023-04-14T00:41:03.525Z,1.50
2023-04-14T00:43:29.854Z,2.25
2023-04-14T00:45:56.480Z,1.90
2023-04-14T00:48:22.879Z,1.40
2023-04-14T00:50:49.462Z,1.58
2023-04-14T00:53:15.963Z,1.38
2023-04-14T00:55:42.937Z,1.70
2023-04-14T00:58:09.604Z,1.55
2023-04-14T01:00:37.595Z,1.17
2023-04-14T01:03:04.310Z,1.70
2023-04-14T01:05:31.045Z,1.42
2023-04-14T01:07:57.855Z,1.30
2023-04-14T01:10:30.371Z,1.25
2023-04-14T01:13:22.672Z,1.80
2023-04-14T01:15:58.549Z,1.42
2023-04-14T01:18:37.079Z,1.73
2023-04-14T01:21:08.203Z,1.58
2023-04-14T01:26:28.535Z,2.10
2023-04-14T01:29:29.597Z,1.52
2023-04-14T01:32:05.369Z,3.53
2023-04-14T01:34:37.711Z,1.77
2023-04-14T01:37:08.287Z,1.52
2023-04-14T01:39:47.017Z,1.60
2023-04-14T01:42:17.382Z,1.15
2023-04-14T01:44:46.131Z,1.30
2023-04-14T01:47:15.274Z,1.50
2023-04-14T01:49:44.655Z,1.65
2023-04-14T01:52:13.249Z,1.80
2023-04-14T01:54:41.420Z,1.63
2023-04-14T01:57:10.451Z,1.70
2023-04-14T01:59:38.172Z,1.50
2023-04-14T02:02:07.795Z,1.90
2023-04-14T02:04:37.444Z,1.75
2023-04-14T02:07:05.751Z,1.40
2023-04-14T02:09:33.991Z,2.17
2023-04-14T02:12:01.274Z,1.45
2023-04-14T02:14:31.067Z,1.40
2023-04-14T02:16:59.382Z,2.30
2023-04-14T02:19:26.863Z,1.80
2023-04-14T02:21:56.170Z,1.70
2023-04-14T02:24:23.655Z,1.30
2023-04-14T02:26:58.616Z,1.63
2023-04-14T02:29:26.879Z,1.55
2023-04-14T02:31:59.845Z,1.65
2023-04-14T02:34:31.755Z,1.83
2023-04-14T02:37:01.942Z,2.08
2023-04-14T02:39:47.349Z,1.70
2023-04-14T02:42:15.509Z,2.10
2023-04-14T02:44:51.537Z,1.90
2023-04-14T02:47:34.144Z,1.90
2023-04-14T02:50:02.690Z,1.70
2023-04-14T02:52:31.928Z,1.55
2023-04-14T02:55:00.349Z,1.63
2023-04-14T02:57:27.695Z,1.65
2023-04-14T02:59:55.172Z,1.60
2023-04-14T03:02:22.517Z,1.95
2023-04-14T03:04:49.349Z,1.60
2023-04-14T03:07:17.492Z,1.60
2023-04-14T03:09:44.958Z,2.10
2023-04-14T03:12:13.890Z,1.98
2023-04-14T03:14:42.824Z,2.00
2023-04-14T03:17:11.109Z,2.17
2023-04-14T03:19:40.673Z,1.70
2023-04-14T03:22:12.754Z,1.52
2023-04-14T03:24:40.323Z,1.52
2023-04-14T03:27:30.069Z,1.63
2023-04-14T03:30:09.928Z,1.85
2023-04-14T03:32:41.837Z,1.63
2023-04-14T03:35:09.808Z,1.67
2023-04-14T03:37:39.646Z,1.60
2023-04-14T03:40:08.266Z,1.60
2023-04-14T03:42:36.244Z,1.70
2023-04-14T03:45:03.813Z,2.10
2023-04-14T03:47:31.566Z,1.40
2023-04-14T03:50:01.202Z,1.80
2023-04-14T03:52:33.108Z,1.70
2023-04-14T03:55:05.974Z,1.85
2023-04-14T03:57:33.713Z,1.92
2023-04-14T04:00:03.033Z,1.83
2023-04-14T04:02:30.759Z,1.70
2023-04-14T04:04:59.357Z,1.83
2023-04-14T04:07:27.229Z,2.05
2023-04-14T04:09:56.419Z,1.35
2023-04-14T04:12:23.974Z,1.83
2023-04-14T04:14:50.344Z,1.75
2023-04-14T04:17:19.348Z,1.67
2023-04-14T04:19:48.431Z,1.65
2023-04-14T04:22:17.267Z,2.05
2023-04-14T04:24:45.326Z,1.52
2023-04-14T04:27:24.241Z,1.90
2023-04-14T04:29:53.726Z,1.70
2023-04-14T04:32:20.922Z,2.20
2023-04-14T04:34:50.290Z,1.95
2023-04-14T04:37:19.434Z,1.90
2023-04-14T04:39:46.024Z,2.47
2023-04-14T04:42:12.429Z,1.90
2023-04-14T04:44:38.838Z,2.35
2023-04-14T04:47:05.604Z,2.42
2023-04-14T04:49:31.965Z,2.33
2023-04-14T04:51:59.603Z,1.98
2023-04-14T04:54:27.058Z,2.20
2023-04-14T04:56:53.818Z,2.20
2023-04-14T04:59:20.183Z,2.70
2023-04-14T05:01:46.646Z,2.40
2023-04-14T05:04:13.077Z,2.20
2023-04-14T05:06:39.572Z,1.80
2023-04-14T05:09:06.622Z,1.80
2023-04-14T05:11:33.807Z,2.17
2023-04-14T05:14:00.479Z,2.13
2023-04-14T05:16:28.152Z,2.20
2023-04-14T05:18:54.544Z,1.63
2023-04-14T05:21:20.943Z,1.70
2023-04-14T05:23:48.173Z,1.88
2023-04-14T05:26:38.754Z,1.90
2023-04-14T05:29:01.954Z,2.22
2023-04-14T05:31:28.657Z,2.42
2023-04-14T05:33:55.093Z,2.22
2023-04-14T05:36:21.446Z,2.50
2023-04-14T05:38:47.795Z,1.98
2023-04-14T05:41:14.210Z,1.90
2023-04-14T05:43:40.577Z,2.35
2023-04-14T05:46:07.090Z,1.88
2023-04-14T05:48:33.855Z,2.20
2023-04-14T05:51:00.319Z,2.45
2023-04-14T05:53:27.612Z,1.85
2023-04-14T05:55:54.028Z,3.25
2023-04-14T05:58:20.403Z,2.30
2023-04-14T06:00:47.094Z,2.38
2023-04-14T06:03:13.848Z,2.10
2023-04-14T06:05:40.493Z,2.28
2023-04-14T06:08:06.822Z,2.40
2023-04-14T06:10:33.344Z,2.30
2023-04-14T06:12:59.919Z,2.55
2023-04-14T06:15:29.412Z,2.28
2023-04-14T06:17:55.789Z,2.05
2023-04-14T06:20:22.194Z,2.13
2023-04-14T06:22:48.596Z,1.98
2023-04-14T06:25:15.162Z,2.55
2023-04-14T06:27:41.556Z,2.45
2023-04-14T06:30:08.554Z,2.33
2023-04-14T06:32:34.980Z,1.80
2023-04-14T06:35:01.427Z,2.40
2023-04-14T06:37:27.834Z,2.80
2023-04-14T06:39:54.626Z,2.35
2023-04-14T06:42:21.690Z,1.98
2023-04-14T06:44:48.216Z,1.92
2023-04-14T06:47:19.508Z,2.35
2023-04-14T06:49:46.095Z,2.40
2023-04-14T06:52:12.538Z,2.33
2023-04-14T06:54:38.874Z,2.15
2023-04-14T06:57:05.241Z,1.70
2023-04-14T06:59:31.588Z,2.25
2023-04-14T07:01:58.857Z,2.72
2023-04-14T07:04:25.780Z,2.33
2023-04-14T07:06:52.260Z,2.45
2023-04-14T07:09:19.287Z,1.85
2023-04-14T07:11:46.378Z,2.20
2023-04-14T07:14:12.755Z,2.17
2023-04-14T07:16:39.175Z,2.22
2023-04-14T07:19:05.542Z,2.28
2023-04-14T07:21:32.419Z,2.60
2023-04-14T07:23:58.925Z,2.60
2023-04-14T07:26:25.738Z,2.05
2023-04-14T07:28:52.076Z,2.60
2023-04-14T07:31:18.494Z,2.90
2023-04-14T07:33:44.914Z,2.30
2023-04-14T07:36:11.693Z,2.65
2023-04-14T07:38:38.210Z,3.22
2023-04-14T07:41:06.335Z,2.40
2023-04-14T07:43:35.487Z,2.13
2023-04-14T07:46:04.814Z,2.20
2023-04-14T07:48:31.875Z,3.28
2023-04-14T07:50:58.314Z,3.00
2023-04-14T07:53:24.777Z,2.60
2023-04-14T07:55:51.224Z,2.15
2023-04-14T07:58:17.563Z,1.80
2023-04-14T08:00:44.019Z,2.17
2023-04-14T08:03:10.599Z,1.85
2023-04-14T08:05:37.605Z,2.35
2023-04-14T08:08:04.079Z,1.92
2023-04-14T08:10:30.585Z,2.30
2023-04-14T08:12:56.942Z,2.25
2023-04-14T08:15:23.369Z,2.20
2023-04-14T08:17:49.821Z,2.42
2023-04-14T08:20:16.575Z,2.33
2023-04-14T08:22:43.255Z,2.25
2023-04-14T08:25:12.770Z,1.90
2023-04-14T08:27:39.107Z,2.75
2023-04-14T08:30:06.153Z,2.05
2023-04-14T08:32:33.671Z,1.90
2023-04-14T08:35:35.282Z,2.28
2023-04-14T08:37:46.564Z,2.47
2023-04-14T08:40:15.268Z,1.27
2023-04-14T08:42:41.659Z,2.15
2023-04-14T08:45:08.268Z,1.80
2023-04-14T08:47:36.433Z,1.65
2023-04-14T08:50:08.021Z,2.20
2023-04-14T08:52:40.265Z,1.23
2023-04-14T08:55:08.006Z,1.40
2023-04-14T08:57:34.890Z,1.30
2023-04-14T09:00:04.703Z,1.48
2023-04-14T09:02:34.398Z,0.90
2023-04-14T09:05:01.271Z,1.13
2023-04-14T09:07:29.893Z,1.08
2023-04-14T09:09:57.567Z,1.10
2023-04-14T09:12:27.114Z,1.00
2023-04-14T09:14:54.929Z,1.20
2023-04-14T09:17:21.992Z,1.25
2023-04-14T09:20:34.964Z,1.40
2023-04-14T09:22:35.626Z,1.67
2023-04-14T09:25:02.905Z,1.40
2023-04-14T09:27:29.389Z,1.42
2023-04-14T09:29:57.455Z,1.40
2023-04-14T09:32:23.917Z,1.00
2023-04-14T09:34:56.572Z,1.30
2023-04-14T09:37:24.615Z,1.35
2023-04-14T09:39:52.845Z,1.80
2023-04-14T09:42:19.653Z,1.02
2023-04-14T09:44:53.318Z,1.60
2023-04-14T09:47:21.257Z,0.93
2023-04-14T09:50:03.332Z,0.82
2023-04-14T09:52:41.028Z,0.98
2023-04-14T09:55:12.233Z,1.50
2023-04-14T10:00:21.613Z,1.27
2023-04-14T10:02:59.045Z,0.73
2023-04-14T10:05:32.177Z,1.25
2023-04-14T10:10:55.012Z,1.48
2023-04-14T10:13:21.393Z,1.02
2023-04-14T10:15:47.887Z,0.77
2023-04-14T10:18:14.353Z,0.80
2023-04-14T10:20:40.959Z,0.65
2023-04-14T10:23:08.769Z,1.33
2023-04-14T10:25:35.851Z,0.80
2023-04-14T10:28:02.494Z,1.08
2023-04-14T10:30:29.141Z,0.63
2023-04-14T10:32:55.757Z,0.60
2023-04-14T10:35:22.274Z,0.70
2023-04-14T10:37:52.657Z,1.10
2023-04-14T10:40:19.605Z,0.80
2023-04-14T10:42:56.368Z,1.08
2023-04-14T10:45:23.306Z,1.55
2023-04-14T10:47:50.254Z,1.08
2023-04-14T10:50:18.606Z,1.15
2023-04-14T10:52:56.124Z,1.35
2023-04-14T10:55:27.931Z,1.52
2023-04-14T10:58:05.392Z,1.35
2023-04-14T11:00:37.279Z,1.50
2023-04-14T11:03:08.184Z,1.60
2023-04-14T11:05:35.579Z,1.30
2023-04-14T11:08:16.104Z,1.60
2023-04-14T11:10:49.132Z,1.40
2023-04-14T11:13:17.549Z,1.05
2023-04-14T11:16:07.766Z,1.15
2023-04-14T11:18:37.366Z,2.22
2023-04-14T11:21:09.168Z,1.00
2023-04-14T11:23:37.154Z,1.00
2023-04-14T11:26:08.065Z,1.30
2023-04-14T11:28:36.445Z,1.10
2023-04-14T11:31:05.947Z,1.45
2023-04-14T11:33:34.295Z,1.60
2023-04-14T11:36:02.830Z,1.13
2023-04-14T11:38:29.884Z,1.50
2023-04-14T11:40:56.761Z,1.10
2023-04-14T11:43:24.494Z,1.10
2023-04-14T11:45:52.208Z,0.93
2023-04-14T11:48:20.082Z,0.90
2023-04-14T11:50:48.231Z,1.27
2023-04-14T11:53:17.579Z,1.10
2023-04-14T11:55:46.445Z,1.40
2023-04-14T11:58:13.774Z,1.17
2023-04-14T12:00:41.045Z,1.15
2023-04-14T12:03:08.001Z,1.20
2023-04-14T12:05:35.639Z,1.38
2023-04-14T12:08:08.593Z,1.63
2023-04-14T12:10:36.387Z,1.45
2023-04-14T12:13:05.681Z,1.52
2023-04-14T12:15:36.590Z,1.50
2023-04-14T12:18:05.395Z,1.40
2023-04-14T12:21:02.628Z,1.25
2023-04-14T12:23:29.117Z,1.75
2023-04-14T12:25:55.948Z,1.20
2023-04-14T12:28:27.925Z,1.45
2023-04-14T12:30:59.168Z,1.70
2023-04-14T12:33:29.576Z,1.92
2023-04-14T12:36:11.473Z,1.50
2023-04-14T12:38:39.657Z,1.33
2023-04-14T12:41:06.130Z,1.30
2023-04-14T12:43:34.562Z,1.25
2023-04-14T12:46:03.633Z,1.60
2023-04-14T12:48:44.665Z,1.42
2023-04-14T12:53:39.897Z,1.25
2023-04-14T12:56:19.363Z,1.27
2023-04-14T12:58:47.114Z,1.20
2023-04-14T13:01:16.435Z,1.38
2023-04-14T13:03:47.031Z,1.33
2023-04-14T13:06:16.403Z,1.25
2023-04-14T13:08:44.571Z,1.27
2023-04-14T13:11:12.632Z,1.45
2023-04-14T13:13:39.114Z,1.38
2023-04-14T13:16:14.469Z,1.25
2023-04-14T13:18:42.279Z,0.90
2023-04-14T13:21:08.637Z,1.08
2023-04-14T13:23:35.202Z,1.20
2023-04-14T13:26:01.634Z,1.38
2023-04-14T13:28:28.555Z,1.40
2023-04-14T13:30:56.565Z,1.50
2023-04-14T13:33:24.452Z,1.50
2023-04-14T13:35:51.420Z,1.30
2023-04-14T13:38:17.954Z,1.50
2023-04-14T13:40:46.140Z,1.38
2023-04-14T13:43:16.434Z,0.95
2023-04-14T13:45:42.865Z,0.80
2023-04-14T13:48:09.336Z,0.90
2023-04-14T13:50:35.815Z,1.10
2023-04-14T13:53:02.328Z,1.13
2023-04-14T13:55:28.693Z,1.20
2023-04-14T13:57:55.284Z,1.00
2023-04-14T14:00:21.769Z,1.30
2023-04-14T14:02:48.326Z,1.40
2023-04-14T14:05:15.349Z,1.02
2023-04-14T14:07:41.728Z,0.88
2023-04-14T14:10:10.351Z,0.65
2023-04-14T14:12:36.829Z,0.60
2023-04-14T14:15:04.770Z,1.15
2023-04-14T14:17:31.519Z,1.05
2023-04-14T14:19:58.171Z,1.40
2023-04-14T14:22:24.613Z,1.08
2023-04-14T14:24:51.138Z,0.80
2023-04-14T14:27:17.545Z,0.90
2023-04-14T14:29:43.965Z,1.08
2023-04-14T14:32:10.657Z,0.90
2023-04-14T14:34:38.734Z,0.93
2023-04-14T14:37:05.267Z,0.90
2023-04-14T14:39:32.576Z,0.88
2023-04-14T14:41:59.077Z,0.90
2023-04-14T14:44:25.459Z,0.98
2023-04-14T14:46:52.746Z,0.88
2023-04-14T14:49:19.731Z,1.02
2023-04-14T14:51:46.168Z,0.70
2023-04-14T14:54:12.751Z,1.02
2023-04-14T14:56:39.351Z,1.20
2023-04-14T14:59:05.885Z,1.00
2023-04-14T15:01:33.017Z,1.30
2023-04-14T15:03:59.676Z,1.15
2023-04-14T15:06:27.566Z,0.95
2023-04-14T15:08:54.022Z,1.02
2023-04-14T15:11:21.223Z,0.98
2023-04-14T15:13:47.688Z,1.00
2023-04-14T15:16:14.085Z,0.80
2023-04-14T15:18:40.468Z,1.00
2023-04-14T15:21:06.916Z,1.20
2023-04-14T15:23:36.915Z,1.00
2023-04-14T15:26:03.376Z,0.90
2023-04-14T15:28:30.568Z,0.90
2023-04-14T15:30:56.927Z,0.85
2023-04-14T15:33:23.761Z,0.85
2023-04-14T15:35:50.664Z,0.90
2023-04-14T15:38:17.048Z,1.00
2023-04-14T15:40:43.533Z,1.40
2023-04-14T15:43:11.262Z,1.10
2023-04-14T15:45:37.658Z,1.20
2023-04-14T15:48:04.266Z,1.20
2023-04-14T15:50:30.660Z,1.10
2023-04-14T15:52:57.687Z,1.30
2023-04-14T15:55:24.064Z,1.00
2023-04-14T15:57:51.088Z,1.08
2023-04-14T16:00:17.724Z,1.02
2023-04-14T16:02:46.220Z,0.93
2023-04-14T16:05:12.916Z,1.08
2023-04-14T16:07:39.791Z,0.80
2023-04-14T16:10:06.963Z,0.68
2023-04-14T16:12:35.359Z,0.82
2023-04-14T16:15:02.565Z,0.80
2023-04-14T16:17:28.968Z,0.98
2023-04-14T16:19:55.370Z,0.80
2023-04-14T16:22:21.759Z,0.80
2023-04-14T16:24:48.099Z,0.80
2023-04-14T16:27:14.608Z,1.13
2023-04-14T16:29:41.559Z,0.80
2023-04-14T16:32:08.209Z,0.70
2023-04-14T16:34:34.958Z,0.80
2023-04-14T16:37:01.337Z,0.75
2023-04-14T16:39:28.366Z,0.60
2023-04-14T16:41:55.887Z,0.65
2023-04-14T16:44:22.251Z,0.70
2023-04-14T16:46:48.818Z,0.80
2023-04-14T16:49:15.966Z,0.60
2023-04-14T16:51:42.361Z,0.82
2023-04-14T16:54:08.921Z,0.50
2023-04-14T16:56:36.809Z,0.63
2023-04-14T16:59:04.332Z,0.60
2023-04-14T17:01:31.627Z,0.55
2023-04-14T17:03:58.282Z,0.90
2023-04-14T17:06:24.820Z,0.85
2023-04-14T17:08:51.381Z,0.55
2023-04-14T17:11:17.853Z,0.90
2023-04-14T17:13:44.247Z,0.60
2023-04-14T17:16:11.003Z,0.98
2023-04-14T17:18:38.107Z,1.00
2023-04-14T17:21:06.147Z,1.02
2023-04-14T17:23:35.631Z,0.65
2023-04-14T17:26:02.117Z,0.80
2023-04-14T17:28:28.704Z,0.88
2023-04-14T17:30:55.557Z,0.70
2023-04-14T17:33:22.018Z,0.90
2023-04-14T17:35:48.536Z,1.08
2023-04-14T17:38:15.005Z,0.70
2023-04-14T17:40:41.557Z,0.82
2023-04-14T17:43:08.115Z,1.00
2023-04-14T17:45:35.007Z,1.02
2023-04-14T17:48:01.477Z,1.00
2023-04-14T17:50:29.199Z,1.10
2023-04-14T17:52:57.389Z,1.67
2023-04-14T17:55:23.898Z,1.10
2023-04-14T17:57:50.320Z,1.13
2023-04-14T18:00:17.109Z,1.17
2023-04-14T18:02:43.553Z,1.10
2023-04-14T18:05:11.221Z,1.60
2023-04-14T18:07:37.898Z,1.20
2023-04-14T18:10:04.940Z,1.00
2023-04-14T18:12:31.347Z,0.90
2023-04-14T18:14:57.754Z,1.25
2023-04-14T18:17:24.718Z,1.17
2023-04-14T18:19:51.509Z,0.95
2023-04-14T18:22:18.262Z,1.00
2023-04-14T18:29:43.690Z,0.90
2023-04-14T18:32:10.039Z,0.90
2023-04-14T18:34:36.671Z,0.90
2023-04-14T18:37:03.897Z,1.15
2023-04-14T18:39:37.322Z,1.15
2023-04-14T18:42:04.586Z,1.55
2023-04-14T18:44:31.084Z,1.40
2023-04-14T18:46:57.529Z,1.15
2023-04-14T18:49:24.421Z,1.00
2023-04-14T18:51:52.369Z,1.17
2023-04-14T18:54:19.166Z,1.35
2023-04-14T18:56:45.869Z,1.63
2023-04-14T18:59:12.555Z,1.05
2023-04-14T19:01:39.298Z,1.42
2023-04-14T19:04:07.524Z,1.33
2023-04-14T19:06:34.677Z,1.60
2023-04-14T19:09:01.597Z,1.08
2023-04-14T19:11:28.405Z,1.40
2023-04-14T19:13:54.819Z,1.20
2023-04-14T19:16:22.571Z,0.90
2023-04-14T19:18:49.294Z,1.10
2023-04-14T19:21:16.244Z,1.15
2023-04-14T19:23:43.170Z,1.38
2023-04-14T19:26:11.327Z,1.23
2023-04-14T19:28:40.068Z,0.98
2023-04-14T19:31:06.478Z,1.20
2023-04-14T19:33:33.093Z,1.50
2023-04-14T19:35:59.530Z,2.20
2023-04-14T19:38:25.924Z,1.90
2023-04-14T19:40:52.725Z,2.00
2023-04-14T19:43:19.255Z,1.70
2023-04-14T19:45:52.524Z,1.90
2023-04-14T19:48:23.534Z,2.70
2023-04-14T19:50:54.085Z,2.92
2023-04-14T19:53:21.621Z,2.50
2023-04-14T19:55:51.770Z,2.38
2023-04-14T19:58:21.638Z,2.08
2023-04-14T20:00:50.932Z,2.25
2023-04-14T20:03:19.045Z,3.47
2023-04-14T20:05:49.642Z,4.68
2023-04-14T20:08:16.173Z,4.95
2023-04-14T20:10:42.525Z,5.07
2023-04-14T20:13:09.915Z,6.40
2023-04-14T20:15:40.168Z,4.60
2023-04-14T20:18:06.517Z,4.00
2023-04-14T20:20:33.276Z,2.90
2023-04-14T20:23:01.344Z,2.85
2023-04-14T20:25:27.742Z,2.40
2023-04-14T20:27:54.142Z,3.63
2023-04-14T20:30:20.496Z,3.45
2023-04-14T20:32:46.926Z,2.40
2023-04-14T20:35:13.498Z,2.30
2023-04-14T20:37:39.916Z,2.67
2023-04-14T20:40:07.585Z,3.08
2023-04-14T20:42:34.686Z,2.60
2023-04-14T20:45:01.656Z,2.75
2023-04-14T20:47:28.643Z,4.40
2023-04-14T20:49:54.987Z,2.72
2023-04-14T20:52:21.340Z,2.30
2023-04-14T20:54:47.678Z,2.25
2023-04-14T20:57:14.345Z,2.20
2023-04-14T20:59:40.694Z,2.25
2023-04-14T21:02:07.183Z,3.25
2023-04-14T21:04:34.710Z,2.30
2023-04-14T21:07:01.168Z,2.75
2023-04-14T21:09:27.948Z,2.60
2023-04-14T21:12:14.880Z,4.10
2023-04-14T21:15:40.327Z,4.13
2023-04-14T21:17:27.218Z,2.30
2023-04-14T21:19:53.760Z,2.97
2023-04-14T21:22:20.128Z,2.50
2023-04-14T21:24:48.333Z,2.08
2023-04-14T21:27:16.032Z,1.70
2023-04-14T21:29:42.396Z,3.80
2023-04-14T21:32:08.895Z,3.40
2023-04-14T21:34:36.037Z,3.10
2023-04-14T21:37:03.563Z,2.78
2023-04-14T21:39:32.813Z,2.00
2023-04-14T21:42:00.161Z,2.70
2023-04-14T21:44:27.153Z,3.67
2023-04-14T21:46:54.231Z,3.65
2023-04-14T21:49:20.614Z,1.92
2023-04-14T21:51:47.053Z,2.13
2023-04-14T21:54:13.911Z,3.38
2023-04-14T21:56:40.335Z,4.25
2023-04-14T21:59:06.969Z,2.95
2023-04-14T22:01:34.087Z,3.67
2023-04-14T22:04:00.720Z,3.05
2023-04-14T22:06:30.181Z,3.10
2023-04-14T22:08:56.568Z,3.38
2023-04-14T22:11:23.058Z,2.65
2023-04-14T22:13:49.520Z,2.90
2023-04-14T22:16:19.754Z,2.42
2023-04-14T22:18:46.370Z,2.63
2023-04-14T22:21:15.883Z,2.88
2023-04-14T22:23:45.626Z,2.80
2023-04-14T22:26:13.225Z,6.18
2023-04-14T22:28:42.371Z,5.32
2023-04-14T22:31:09.561Z,3.58
2023-04-14T22:33:35.986Z,3.35
2023-04-14T22:36:05.480Z,2.90
2023-04-14T22:38:33.578Z,2.90
2023-04-14T22:41:01.104Z,3.90
2023-04-14T22:43:27.954Z,4.47
2023-04-14T22:45:54.632Z,3.15
2023-04-14T22:48:21.675Z,3.92
2023-04-14T22:50:48.116Z,6.82
2023-04-14T22:53:14.472Z,4.88
2023-04-14T22:55:42.202Z,3.28
2023-04-14T22:58:09.910Z,2.80
2023-04-14T23:00:36.264Z,3.00
2023-04-14T23:03:02.931Z,2.88
2023-04-14T23:05:29.485Z,2.70
2023-04-14T23:07:55.895Z,2.50
2023-04-14T23:10:22.292Z,2.65
2023-04-14T23:12:48.692Z,2.40
2023-04-14T23:15:15.108Z,2.78
2023-04-14T23:17:41.611Z,2.65
2023-04-14T23:20:08.585Z,2.55
2023-04-14T23:22:34.925Z,2.90
2023-04-14T23:25:01.436Z,2.60
2023-04-14T23:27:28.395Z,3.03
2023-04-14T23:29:54.754Z,3.08
2023-04-14T23:32:21.166Z,2.45
2023-04-14T23:34:48.268Z,2.80
2023-04-14T23:37:14.731Z,2.58
2023-04-14T23:39:41.231Z,2.78
2023-04-14T23:42:08.488Z,3.03
2023-04-14T23:44:34.834Z,2.50
2023-04-14T23:47:01.391Z,2.50
2023-04-14T23:49:34.712Z,2.42
2023-04-14T23:52:01.911Z,2.83
2023-04-14T23:54:30.323Z,2.92
2023-04-14T23:56:56.664Z,2.60
2023-04-14T23:59:23.247Z,3.20
